Homestead AFB, Florida
Current Conditions -  °F | °C
As of 4:58 AM on Saturday 22 Nov 2014 (Local Time) from KHST Reporting Station
Few Clouds Few Clouds  
Wind Chill: 75°   Ceiling: Unl
Heat Index: 75°   Visibility: 10mi
Dew Point: 69°   Wind: 14mph
Humidity: 83%   Direction: 60°ENE
Pressure: 30.12"   Gusts: 22mph
Location:  25.5115°N, 80.4002°W
Report Text: KHST 220958Z AUTO 06012G19KT 10SM FEW075 24/21 A3012 RMK AO2 SLP203 T02390208
Loading
Personal Weather Stations






























Interactive Weather Map New forecast layout! Learn more

10-Day Weather Forecast

Advertisements
Track Severe Weather on mobile